sensor_id;sensor_type;location;lat;lon;timestamp;P1;durP1;ratioP1;P2;durP2;ratioP2
29634;SDS011;16557;54.762;56.068;2023-05-17T00:00:01;13.25;;;6.60;;
29634;SDS011;16557;54.762;56.068;2023-05-17T00:02:32;10.38;;;5.20;;
29634;SDS011;16557;54.762;56.068;2023-05-17T00:05:02;6.53;;;3.40;;
29634;SDS011;16557;54.762;56.068;2023-05-17T00:07:32;6.37;;;3.83;;
29634;SDS011;16557;54.762;56.068;2023-05-17T00:10:01;4.72;;;3.17;;
29634;SDS011;16557;54.762;56.068;2023-05-17T00:12:31;6.08;;;2.33;;
29634;SDS011;16557;54.762;56.068;2023-05-17T00:15:01;3.40;;;2.30;;
29634;SDS011;16557;54.762;56.068;2023-05-17T00:17:31;3.22;;;2.30;;
29634;SDS011;16557;54.762;56.068;2023-05-17T00:20:00;4.40;;;2.08;;
29634;SDS011;16557;54.762;56.068;2023-05-17T00:22:30;3.87;;;2.08;;
29634;SDS011;16557;54.762;56.068;2023-05-17T00:24:59;5.55;;;1.92;;
29634;SDS011;16557;54.762;56.068;2023-05-17T00:27:30;3.00;;;1.82;;
29634;SDS011;16557;54.762;56.068;2023-05-17T00:29:59;4.10;;;2.20;;
29634;SDS011;16557;54.762;56.068;2023-05-17T00:32:30;6.10;;;2.35;;
29634;SDS011;16557;54.762;56.068;2023-05-17T00:34:59;3.75;;;1.60;;
29634;SDS011;16557;54.762;56.068;2023-05-17T00:37:30;4.92;;;1.95;;
29634;SDS011;16557;54.762;56.068;2023-05-17T00:39:59;6.97;;;2.40;;
29634;SDS011;16557;54.762;56.068;2023-05-17T00:42:30;4.33;;;2.20;;
29634;SDS011;16557;54.762;56.068;2023-05-17T00:44:59;4.12;;;1.55;;
29634;SDS011;16557;54.762;56.068;2023-05-17T00:47:30;3.47;;;1.70;;
29634;SDS011;16557;54.762;56.068;2023-05-17T00:50:00;4.95;;;1.90;;
29634;SDS011;16557;54.762;56.068;2023-05-17T00:52:31;4.35;;;1.87;;
29634;SDS011;16557;54.762;56.068;2023-05-17T00:55:00;3.87;;;2.12;;
29634;SDS011;16557;54.762;56.068;2023-05-17T00:57:32;6.60;;;2.30;;
29634;SDS011;16557;54.762;56.068;2023-05-17T01:00:01;3.72;;;2.00;;
29634;SDS011;16557;54.762;56.068;2023-05-17T01:02:33;5.60;;;2.00;;
29634;SDS011;16557;54.762;56.068;2023-05-17T01:05:02;3.83;;;1.25;;
29634;SDS011;16557;54.762;56.068;2023-05-17T01:07:33;5.20;;;2.00;;
29634;SDS011;16557;54.762;56.068;2023-05-17T01:10:03;4.58;;;1.85;;
29634;SDS011;16557;54.762;56.068;2023-05-17T01:12:54;3.85;;;1.47;;
29634;SDS011;16557;54.762;56.068;2023-05-17T01:15:33;8.90;;;1.72;;
29634;SDS011;16557;54.762;56.068;2023-05-17T01:20:59;3.27;;;1.57;;
29634;SDS011;16557;54.762;56.068;2023-05-17T01:23:48;4.08;;;1.30;;
29634;SDS011;16557;54.762;56.068;2023-05-17T01:26:27;3.75;;;1.50;;
29634;SDS011;16557;54.762;56.068;2023-05-17T01:28:57;5.22;;;1.55;;
29634;SDS011;16557;54.762;56.068;2023-05-17T01:31:28;3.20;;;1.22;;
29634;SDS011;16557;54.762;56.068;2023-05-17T01:33:58;8.80;;;2.10;;
29634;SDS011;16557;54.762;56.068;2023-05-17T01:36:27;8.50;;;1.45;;
29634;SDS011;16557;54.762;56.068;2023-05-17T01:38:57;8.28;;;2.50;;
29634;SDS011;16557;54.762;56.068;2023-05-17T01:41:28;3.67;;;1.10;;
29634;SDS011;16557;54.762;56.068;2023-05-17T01:46:38;5.92;;;2.00;;
29634;SDS011;16557;54.762;56.068;2023-05-17T01:49:17;6.20;;;1.25;;
29634;SDS011;16557;54.762;56.068;2023-05-17T01:51:57;8.83;;;1.42;;
29634;SDS011;16557;54.762;56.068;2023-05-17T01:54:20;5.55;;;2.70;;
29634;SDS011;16557;54.762;56.068;2023-05-17T01:56:54;9.43;;;2.72;;
29634;SDS011;16557;54.762;56.068;2023-05-17T01:59:23;5.85;;;2.22;;
29634;SDS011;16557;54.762;56.068;2023-05-17T02:01:54;6.95;;;2.55;;
29634;SDS011;16557;54.762;56.068;2023-05-17T02:04:24;15.38;;;7.58;;
29634;SDS011;16557;54.762;56.068;2023-05-17T02:06:54;14.38;;;4.95;;
29634;SDS011;16557;54.762;56.068;2023-05-17T02:09:23;8.20;;;3.30;;
29634;SDS011;16557;54.762;56.068;2023-05-17T02:11:53;4.87;;;2.50;;
29634;SDS011;16557;54.762;56.068;2023-05-17T02:14:23;12.45;;;2.83;;
29634;SDS011;16557;54.762;56.068;2023-05-17T02:16:52;10.35;;;3.52;;
29634;SDS011;16557;54.762;56.068;2023-05-17T02:19:22;18.65;;;2.65;;
29634;SDS011;16557;54.762;56.068;2023-05-17T02:21:51;13.00;;;2.98;;
29634;SDS011;16557;54.762;56.068;2023-05-17T02:24:21;16.02;;;4.70;;
29634;SDS011;16557;54.762;56.068;2023-05-17T02:26:50;9.63;;;3.15;;
29634;SDS011;16557;54.762;56.068;2023-05-17T02:29:19;5.55;;;1.72;;
29634;SDS011;16557;54.762;56.068;2023-05-17T02:31:48;10.25;;;2.37;;
29634;SDS011;16557;54.762;56.068;2023-05-17T02:34:22;21.52;;;2.40;;
29634;SDS011;16557;54.762;56.068;2023-05-17T02:36:51;24.63;;;2.75;;
29634;SDS011;16557;54.762;56.068;2023-05-17T02:39:20;21.02;;;3.72;;
29634;SDS011;16557;54.762;56.068;2023-05-17T02:41:50;26.30;;;3.62;;
29634;SDS011;16557;54.762;56.068;2023-05-17T02:44:19;11.90;;;2.83;;
29634;SDS011;16557;54.762;56.068;2023-05-17T02:46:49;18.12;;;2.60;;
29634;SDS011;16557;54.762;56.068;2023-05-17T02:49:18;8.63;;;2.22;;
29634;SDS011;16557;54.762;56.068;2023-05-17T02:51:47;13.93;;;3.17;;
29634;SDS011;16557;54.762;56.068;2023-05-17T02:54:16;19.17;;;3.67;;
29634;SDS011;16557;54.762;56.068;2023-05-17T02:56:46;24.45;;;4.03;;
29634;SDS011;16557;54.762;56.068;2023-05-17T02:59:15;14.35;;;2.72;;
29634;SDS011;16557;54.762;56.068;2023-05-17T03:01:44;15.72;;;2.90;;
29634;SDS011;16557;54.762;56.068;2023-05-17T03:04:15;19.90;;;3.67;;
29634;SDS011;16557;54.762;56.068;2023-05-17T03:06:46;8.55;;;2.33;;
29634;SDS011;16557;54.762;56.068;2023-05-17T03:09:17;24.63;;;3.40;;
29634;SDS011;16557;54.762;56.068;2023-05-17T03:11:47;13.08;;;3.92;;
29634;SDS011;16557;54.762;56.068;2023-05-17T03:14:16;12.33;;;3.42;;
29634;SDS011;16557;54.762;56.068;2023-05-17T03:16:45;16.02;;;3.55;;
29634;SDS011;16557;54.762;56.068;2023-05-17T03:19:15;14.73;;;3.80;;
29634;SDS011;16557;54.762;56.068;2023-05-17T03:21:44;18.90;;;3.37;;
29634;SDS011;16557;54.762;56.068;2023-05-17T03:24:13;17.45;;;3.25;;
29634;SDS011;16557;54.762;56.068;2023-05-17T03:26:42;14.70;;;3.08;;
29634;SDS011;16557;54.762;56.068;2023-05-17T03:29:12;12.82;;;3.58;;
29634;SDS011;16557;54.762;56.068;2023-05-17T03:31:41;31.33;;;4.75;;
29634;SDS011;16557;54.762;56.068;2023-05-17T03:34:10;17.50;;;3.80;;
29634;SDS011;16557;54.762;56.068;2023-05-17T03:36:40;9.08;;;3.90;;
29634;SDS011;16557;54.762;56.068;2023-05-17T03:39:09;13.13;;;3.95;;
29634;SDS011;16557;54.762;56.068;2023-05-17T03:41:38;11.75;;;4.55;;
29634;SDS011;16557;54.762;56.068;2023-05-17T03:44:08;14.33;;;5.22;;
29634;SDS011;16557;54.762;56.068;2023-05-17T03:46:37;8.63;;;4.05;;
29634;SDS011;16557;54.762;56.068;2023-05-17T03:49:07;10.35;;;5.40;;
29634;SDS011;16557;54.762;56.068;2023-05-17T03:51:36;10.75;;;4.67;;
29634;SDS011;16557;54.762;56.068;2023-05-17T03:54:05;15.95;;;6.50;;
29634;SDS011;16557;54.762;56.068;2023-05-17T03:56:34;14.93;;;5.90;;
29634;SDS011;16557;54.762;56.068;2023-05-17T03:59:04;28.00;;;6.60;;
29634;SDS011;16557;54.762;56.068;2023-05-17T04:01:33;19.65;;;6.55;;
29634;SDS011;16557;54.762;56.068;2023-05-17T04:04:02;34.73;;;7.65;;
29634;SDS011;16557;54.762;56.068;2023-05-17T04:06:32;15.25;;;7.25;;
29634;SDS011;16557;54.762;56.068;2023-05-17T04:09:01;22.27;;;6.85;;
29634;SDS011;16557;54.762;56.068;2023-05-17T04:11:30;22.00;;;8.10;;
29634;SDS011;16557;54.762;56.068;2023-05-17T04:14:00;14.85;;;8.35;;
29634;SDS011;16557;54.762;56.068;2023-05-17T04:16:29;19.00;;;8.00;;
29634;SDS011;16557;54.762;56.068;2023-05-17T04:18:59;12.95;;;7.42;;
29634;SDS011;16557;54.762;56.068;2023-05-17T04:21:28;24.18;;;9.05;;
29634;SDS011;16557;54.762;56.068;2023-05-17T04:23:58;23.80;;;9.70;;
29634;SDS011;16557;54.762;56.068;2023-05-17T04:26:29;32.80;;;10.50;;
29634;SDS011;16557;54.762;56.068;2023-05-17T04:28:59;17.92;;;9.35;;
29634;SDS011;16557;54.762;56.068;2023-05-17T04:31:30;16.97;;;8.95;;
29634;SDS011;16557;54.762;56.068;2023-05-17T04:34:00;20.75;;;10.20;;
29634;SDS011;16557;54.762;56.068;2023-05-17T04:36:29;25.23;;;10.63;;
29634;SDS011;16557;54.762;56.068;2023-05-17T04:38:59;20.05;;;10.80;;
29634;SDS011;16557;54.762;56.068;2023-05-17T04:41:30;25.17;;;11.63;;
29634;SDS011;16557;54.762;56.068;2023-05-17T04:43:59;22.80;;;11.75;;
29634;SDS011;16557;54.762;56.068;2023-05-17T04:46:30;20.25;;;10.93;;
29634;SDS011;16557;54.762;56.068;2023-05-17T04:49:00;20.90;;;12.15;;
29634;SDS011;16557;54.762;56.068;2023-05-17T04:51:29;38.42;;;14.63;;
29634;SDS011;16557;54.762;56.068;2023-05-17T04:54:01;28.32;;;12.95;;
29634;SDS011;16557;54.762;56.068;2023-05-17T04:56:33;30.05;;;13.22;;
29634;SDS011;16557;54.762;56.068;2023-05-17T04:59:06;29.45;;;13.78;;
29634;SDS011;16557;54.762;56.068;2023-05-17T05:01:35;27.50;;;13.43;;
29634;SDS011;16557;54.762;56.068;2023-05-17T05:04:06;30.00;;;14.23;;
29634;SDS011;16557;54.762;56.068;2023-05-17T05:06:38;33.28;;;16.30;;
29634;SDS011;16557;54.762;56.068;2023-05-17T05:09:07;34.60;;;16.15;;
29634;SDS011;16557;54.762;56.068;2023-05-17T05:11:36;29.55;;;14.20;;
29634;SDS011;16557;54.762;56.068;2023-05-17T05:14:06;47.00;;;17.45;;
29634;SDS011;16557;54.762;56.068;2023-05-17T05:16:35;41.65;;;16.12;;
29634;SDS011;16557;54.762;56.068;2023-05-17T05:19:07;40.08;;;17.20;;
29634;SDS011;16557;54.762;56.068;2023-05-17T05:21:36;34.83;;;17.77;;
29634;SDS011;16557;54.762;56.068;2023-05-17T05:24:08;44.48;;;18.90;;
29634;SDS011;16557;54.762;56.068;2023-05-17T05:26:37;41.42;;;18.12;;
29634;SDS011;16557;54.762;56.068;2023-05-17T05:29:06;32.63;;;17.55;;
29634;SDS011;16557;54.762;56.068;2023-05-17T05:31:36;34.10;;;17.82;;
29634;SDS011;16557;54.762;56.068;2023-05-17T05:34:05;39.40;;;16.82;;
29634;SDS011;16557;54.762;56.068;2023-05-17T05:36:34;30.20;;;17.85;;
29634;SDS011;16557;54.762;56.068;2023-05-17T05:39:04;30.95;;;16.30;;
29634;SDS011;16557;54.762;56.068;2023-05-17T05:41:34;41.65;;;18.25;;
29634;SDS011;16557;54.762;56.068;2023-05-17T05:44:03;38.63;;;17.75;;
29634;SDS011;16557;54.762;56.068;2023-05-17T05:46:33;36.93;;;16.97;;
29634;SDS011;16557;54.762;56.068;2023-05-17T05:49:02;37.50;;;17.42;;
29634;SDS011;16557;54.762;56.068;2023-05-17T05:51:32;65.47;;;20.70;;
29634;SDS011;16557;54.762;56.068;2023-05-17T05:54:01;43.73;;;18.25;;
29634;SDS011;16557;54.762;56.068;2023-05-17T05:56:30;40.67;;;16.97;;
29634;SDS011;16557;54.762;56.068;2023-05-17T05:59:00;31.35;;;17.17;;
29634;SDS011;16557;54.762;56.068;2023-05-17T06:01:30;30.00;;;16.62;;
29634;SDS011;16557;54.762;56.068;2023-05-17T06:04:00;33.85;;;16.85;;
29634;SDS011;16557;54.762;56.068;2023-05-17T06:06:29;24.12;;;16.23;;
29634;SDS011;16557;54.762;56.068;2023-05-17T06:08:59;33.70;;;17.27;;
29634;SDS011;16557;54.762;56.068;2023-05-17T06:11:29;38.23;;;18.55;;
29634;SDS011;16557;54.762;56.068;2023-05-17T06:13:58;31.07;;;18.30;;
29634;SDS011;16557;54.762;56.068;2023-05-17T06:16:28;44.25;;;20.05;;
29634;SDS011;16557;54.762;56.068;2023-05-17T06:18:57;36.58;;;19.87;;
29634;SDS011;16557;54.762;56.068;2023-05-17T06:21:27;32.28;;;19.42;;
29634;SDS011;16557;54.762;56.068;2023-05-17T06:23:57;34.00;;;20.48;;
29634;SDS011;16557;54.762;56.068;2023-05-17T06:26:27;32.83;;;21.42;;
29634;SDS011;16557;54.762;56.068;2023-05-17T06:28:56;44.10;;;22.05;;
29634;SDS011;16557;54.762;56.068;2023-05-17T06:31:26;33.05;;;20.68;;
29634;SDS011;16557;54.762;56.068;2023-05-17T06:33:55;42.43;;;23.67;;
29634;SDS011;16557;54.762;56.068;2023-05-17T06:36:25;53.13;;;25.68;;
29634;SDS011;16557;54.762;56.068;2023-05-17T06:38:54;41.55;;;25.15;;
29634;SDS011;16557;54.762;56.068;2023-05-17T06:41:24;43.02;;;25.85;;
29634;SDS011;16557;54.762;56.068;2023-05-17T06:43:53;41.80;;;25.88;;
29634;SDS011;16557;54.762;56.068;2023-05-17T06:46:26;48.13;;;26.75;;
29634;SDS011;16557;54.762;56.068;2023-05-17T06:48:55;40.73;;;24.75;;
29634;SDS011;16557;54.762;56.068;2023-05-17T06:51:26;44.42;;;27.02;;
29634;SDS011;16557;54.762;56.068;2023-05-17T06:54:00;44.53;;;27.07;;
29634;SDS011;16557;54.762;56.068;2023-05-17T06:56:28;39.45;;;28.75;;
29634;SDS011;16557;54.762;56.068;2023-05-17T06:58:58;43.17;;;28.47;;
29634;SDS011;16557;54.762;56.068;2023-05-17T07:01:27;46.10;;;28.60;;
29634;SDS011;16557;54.762;56.068;2023-05-17T07:03:57;39.03;;;26.85;;
29634;SDS011;16557;54.762;56.068;2023-05-17T07:06:27;36.75;;;24.70;;
29634;SDS011;16557;54.762;56.068;2023-05-17T07:08:57;33.63;;;22.58;;
29634;SDS011;16557;54.762;56.068;2023-05-17T07:11:28;34.90;;;21.62;;
29634;SDS011;16557;54.762;56.068;2023-05-17T07:13:58;43.52;;;20.65;;
29634;SDS011;16557;54.762;56.068;2023-05-17T07:16:27;29.77;;;21.12;;
29634;SDS011;16557;54.762;56.068;2023-05-17T07:18:58;36.45;;;20.40;;
29634;SDS011;16557;54.762;56.068;2023-05-17T07:21:28;25.97;;;18.70;;
29634;SDS011;16557;54.762;56.068;2023-05-17T07:23:58;33.83;;;18.17;;
29634;SDS011;16557;54.762;56.068;2023-05-17T07:26:28;30.08;;;17.67;;
29634;SDS011;16557;54.762;56.068;2023-05-17T07:28:58;43.15;;;16.93;;
29634;SDS011;16557;54.762;56.068;2023-05-17T07:31:28;26.73;;;16.65;;
29634;SDS011;16557;54.762;56.068;2023-05-17T07:33:57;23.70;;;17.80;;
29634;SDS011;16557;54.762;56.068;2023-05-17T07:36:27;24.47;;;14.73;;
29634;SDS011;16557;54.762;56.068;2023-05-17T07:38:57;19.65;;;13.68;;
29634;SDS011;16557;54.762;56.068;2023-05-17T07:41:28;18.40;;;13.22;;
29634;SDS011;16557;54.762;56.068;2023-05-17T07:44:00;27.58;;;14.58;;
29634;SDS011;16557;54.762;56.068;2023-05-17T07:46:31;19.15;;;13.00;;
29634;SDS011;16557;54.762;56.068;2023-05-17T07:49:00;33.95;;;13.62;;
29634;SDS011;16557;54.762;56.068;2023-05-17T07:51:30;25.88;;;12.58;;
29634;SDS011;16557;54.762;56.068;2023-05-17T07:53:59;20.48;;;12.63;;
29634;SDS011;16557;54.762;56.068;2023-05-17T07:56:29;25.12;;;12.75;;
29634;SDS011;16557;54.762;56.068;2023-05-17T07:59:00;36.88;;;13.58;;
29634;SDS011;16557;54.762;56.068;2023-05-17T08:01:29;20.52;;;12.45;;
29634;SDS011;16557;54.762;56.068;2023-05-17T08:03:59;25.55;;;10.88;;
29634;SDS011;16557;54.762;56.068;2023-05-17T08:06:28;17.73;;;10.90;;
29634;SDS011;16557;54.762;56.068;2023-05-17T08:08:58;34.88;;;11.80;;
29634;SDS011;16557;54.762;56.068;2023-05-17T08:11:29;21.85;;;12.13;;
29634;SDS011;16557;54.762;56.068;2023-05-17T08:14:00;31.40;;;11.65;;
29634;SDS011;16557;54.762;56.068;2023-05-17T08:16:29;21.33;;;11.12;;
29634;SDS011;16557;54.762;56.068;2023-05-17T08:18:59;18.35;;;10.50;;
29634;SDS011;16557;54.762;56.068;2023-05-17T08:21:31;12.68;;;9.78;;
29634;SDS011;16557;54.762;56.068;2023-05-17T08:24:01;17.52;;;9.70;;
29634;SDS011;16557;54.762;56.068;2023-05-17T08:26:31;19.75;;;9.75;;
29634;SDS011;16557;54.762;56.068;2023-05-17T08:29:00;23.80;;;10.58;;
29634;SDS011;16557;54.762;56.068;2023-05-17T08:31:31;19.48;;;8.33;;
29634;SDS011;16557;54.762;56.068;2023-05-17T08:34:00;21.27;;;8.40;;
29634;SDS011;16557;54.762;56.068;2023-05-17T08:36:31;10.43;;;6.53;;
29634;SDS011;16557;54.762;56.068;2023-05-17T08:39:01;11.18;;;5.75;;
29634;SDS011;16557;54.762;56.068;2023-05-17T08:41:30;13.18;;;5.70;;
29634;SDS011;16557;54.762;56.068;2023-05-17T08:44:02;7.05;;;4.40;;
29634;SDS011;16557;54.762;56.068;2023-05-17T08:46:31;9.40;;;4.47;;
29634;SDS011;16557;54.762;56.068;2023-05-17T08:49:01;10.43;;;5.12;;
29634;SDS011;16557;54.762;56.068;2023-05-17T08:51:31;24.32;;;5.65;;
29634;SDS011;16557;54.762;56.068;2023-05-17T08:54:02;20.23;;;6.08;;
29634;SDS011;16557;54.762;56.068;2023-05-17T08:56:37;8.73;;;5.20;;
29634;SDS011;16557;54.762;56.068;2023-05-17T08:59:07;7.12;;;5.25;;
29634;SDS011;16557;54.762;56.068;2023-05-17T09:01:40;11.70;;;4.47;;
29634;SDS011;16557;54.762;56.068;2023-05-17T09:04:11;10.55;;;6.33;;
29634;SDS011;16557;54.762;56.068;2023-05-17T09:06:40;13.95;;;6.37;;
29634;SDS011;16557;54.762;56.068;2023-05-17T09:09:11;15.83;;;6.10;;
29634;SDS011;16557;54.762;56.068;2023-05-17T09:11:40;16.75;;;6.05;;
29634;SDS011;16557;54.762;56.068;2023-05-17T09:14:10;11.83;;;6.47;;
29634;SDS011;16557;54.762;56.068;2023-05-17T09:16:44;13.58;;;5.60;;
29634;SDS011;16557;54.762;56.068;2023-05-17T09:19:17;12.90;;;4.87;;
29634;SDS011;16557;54.762;56.068;2023-05-17T09:21:46;13.88;;;6.00;;
29634;SDS011;16557;54.762;56.068;2023-05-17T09:24:17;11.60;;;5.75;;
29634;SDS011;16557;54.762;56.068;2023-05-17T09:29:17;13.25;;;4.95;;
29634;SDS011;16557;54.762;56.068;2023-05-17T09:31:46;6.12;;;4.25;;
29634;SDS011;16557;54.762;56.068;2023-05-17T09:34:22;13.75;;;5.00;;
29634;SDS011;16557;54.762;56.068;2023-05-17T09:36:50;12.05;;;3.40;;
29634;SDS011;16557;54.762;56.068;2023-05-17T09:39:21;9.60;;;4.00;;
29634;SDS011;16557;54.762;56.068;2023-05-17T09:41:55;4.60;;;3.30;;
29634;SDS011;16557;54.762;56.068;2023-05-17T09:44:24;12.25;;;3.62;;
29634;SDS011;16557;54.762;56.068;2023-05-17T09:46:53;7.40;;;3.02;;
29634;SDS011;16557;54.762;56.068;2023-05-17T09:49:25;10.10;;;4.08;;
29634;SDS011;16557;54.762;56.068;2023-05-17T09:51:57;10.03;;;3.83;;
29634;SDS011;16557;54.762;56.068;2023-05-17T09:54:30;6.97;;;3.58;;
29634;SDS011;16557;54.762;56.068;2023-05-17T09:59:32;12.65;;;4.12;;
29634;SDS011;16557;54.762;56.068;2023-05-17T10:02:01;14.87;;;3.85;;
29634;SDS011;16557;54.762;56.068;2023-05-17T10:04:34;11.50;;;3.40;;
29634;SDS011;16557;54.762;56.068;2023-05-17T10:07:04;8.68;;;3.47;;
29634;SDS011;16557;54.762;56.068;2023-05-17T10:09:33;6.17;;;3.33;;
29634;SDS011;16557;54.762;56.068;2023-05-17T10:12:04;9.43;;;3.35;;
29634;SDS011;16557;54.762;56.068;2023-05-17T10:14:34;7.28;;;2.67;;
29634;SDS011;16557;54.762;56.068;2023-05-17T10:17:04;8.70;;;2.67;;
29634;SDS011;16557;54.762;56.068;2023-05-17T10:19:35;11.93;;;3.58;;
29634;SDS011;16557;54.762;56.068;2023-05-17T10:22:05;13.98;;;3.15;;
29634;SDS011;16557;54.762;56.068;2023-05-17T10:24:34;11.60;;;3.08;;
29634;SDS011;16557;54.762;56.068;2023-05-17T10:27:05;10.60;;;3.60;;
29634;SDS011;16557;54.762;56.068;2023-05-17T10:29:35;8.78;;;3.12;;
29634;SDS011;16557;54.762;56.068;2023-05-17T10:32:06;15.00;;;3.50;;
29634;SDS011;16557;54.762;56.068;2023-05-17T10:34:37;11.28;;;4.28;;
29634;SDS011;16557;54.762;56.068;2023-05-17T10:37:10;11.78;;;3.37;;
29634;SDS011;16557;54.762;56.068;2023-05-17T10:39:43;20.50;;;4.83;;
29634;SDS011;16557;54.762;56.068;2023-05-17T10:42:13;14.83;;;4.25;;
29634;SDS011;16557;54.762;56.068;2023-05-17T10:44:44;9.65;;;3.77;;
29634;SDS011;16557;54.762;56.068;2023-05-17T10:47:13;4.40;;;2.90;;
29634;SDS011;16557;54.762;56.068;2023-05-17T10:49:43;11.57;;;2.98;;
29634;SDS011;16557;54.762;56.068;2023-05-17T10:52:17;7.05;;;3.47;;
29634;SDS011;16557;54.762;56.068;2023-05-17T10:54:52;7.10;;;2.52;;
29634;SDS011;16557;54.762;56.068;2023-05-17T10:57:20;7.65;;;3.33;;
29634;SDS011;16557;54.762;56.068;2023-05-17T11:00:02;9.00;;;3.40;;
29634;SDS011;16557;54.762;56.068;2023-05-17T11:02:26;6.45;;;2.67;;
29634;SDS011;16557;54.762;56.068;2023-05-17T11:04:59;6.17;;;2.85;;
29634;SDS011;16557;54.762;56.068;2023-05-17T11:07:30;12.20;;;2.92;;
29634;SDS011;16557;54.762;56.068;2023-05-17T11:10:09;5.62;;;2.67;;
29634;SDS011;16557;54.762;56.068;2023-05-17T11:12:41;8.55;;;3.08;;
29634;SDS011;16557;54.762;56.068;2023-05-17T11:15:16;10.95;;;3.02;;
29634;SDS011;16557;54.762;56.068;2023-05-17T11:17:47;8.60;;;2.85;;
29634;SDS011;16557;54.762;56.068;2023-05-17T11:23:00;12.85;;;3.05;;
29634;SDS011;16557;54.762;56.068;2023-05-17T11:25:34;7.53;;;2.92;;
29634;SDS011;16557;54.762;56.068;2023-05-17T11:28:05;6.40;;;3.20;;
29634;SDS011;16557;54.762;56.068;2023-05-17T11:30:40;11.50;;;2.55;;
29634;SDS011;16557;54.762;56.068;2023-05-17T11:33:11;7.08;;;2.87;;
29634;SDS011;16557;54.762;56.068;2023-05-17T11:35:41;8.73;;;3.00;;
29634;SDS011;16557;54.762;56.068;2023-05-17T11:38:21;9.68;;;2.62;;
29634;SDS011;16557;54.762;56.068;2023-05-17T11:40:54;5.53;;;2.25;;
29634;SDS011;16557;54.762;56.068;2023-05-17T11:43:24;7.28;;;3.15;;
29634;SDS011;16557;54.762;56.068;2023-05-17T11:45:58;8.30;;;2.90;;
29634;SDS011;16557;54.762;56.068;2023-05-17T11:48:32;11.85;;;3.37;;
29634;SDS011;16557;54.762;56.068;2023-05-17T11:51:01;10.58;;;3.00;;
29634;SDS011;16557;54.762;56.068;2023-05-17T11:53:31;11.08;;;3.22;;
29634;SDS011;16557;54.762;56.068;2023-05-17T11:56:01;13.00;;;3.47;;
29634;SDS011;16557;54.762;56.068;2023-05-17T11:58:31;13.65;;;3.33;;
29634;SDS011;16557;54.762;56.068;2023-05-17T12:01:00;23.22;;;3.75;;
29634;SDS011;16557;54.762;56.068;2023-05-17T12:03:31;9.55;;;3.47;;
29634;SDS011;16557;54.762;56.068;2023-05-17T12:06:02;9.05;;;3.60;;
29634;SDS011;16557;54.762;56.068;2023-05-17T12:08:33;11.93;;;3.08;;
29634;SDS011;16557;54.762;56.068;2023-05-17T12:11:04;8.38;;;3.00;;
29634;SDS011;16557;54.762;56.068;2023-05-17T12:13:34;6.70;;;2.75;;
29634;SDS011;16557;54.762;56.068;2023-05-17T12:16:06;6.72;;;3.10;;
29634;SDS011;16557;54.762;56.068;2023-05-17T12:18:35;11.68;;;2.75;;
29634;SDS011;16557;54.762;56.068;2023-05-17T12:21:09;9.55;;;2.72;;
29634;SDS011;16557;54.762;56.068;2023-05-17T12:23:41;4.80;;;2.47;;
29634;SDS011;16557;54.762;56.068;2023-05-17T12:26:14;7.58;;;3.17;;
29634;SDS011;16557;54.762;56.068;2023-05-17T12:28:45;13.40;;;3.40;;
29634;SDS011;16557;54.762;56.068;2023-05-17T12:31:30;6.45;;;3.20;;
29634;SDS011;16557;54.762;56.068;2023-05-17T12:33:59;5.62;;;2.90;;
29634;SDS011;16557;54.762;56.068;2023-05-17T12:36:31;6.95;;;3.00;;
29634;SDS011;16557;54.762;56.068;2023-05-17T12:39:02;6.08;;;2.83;;
29634;SDS011;16557;54.762;56.068;2023-05-17T12:41:33;7.62;;;2.72;;
29634;SDS011;16557;54.762;56.068;2023-05-17T12:44:08;7.12;;;2.95;;
29634;SDS011;16557;54.762;56.068;2023-05-17T12:46:37;7.58;;;2.80;;
29634;SDS011;16557;54.762;56.068;2023-05-17T12:49:07;12.98;;;3.12;;
29634;SDS011;16557;54.762;56.068;2023-05-17T12:51:41;5.97;;;2.75;;
29634;SDS011;16557;54.762;56.068;2023-05-17T12:54:31;8.35;;;3.17;;
29634;SDS011;16557;54.762;56.068;2023-05-17T12:56:56;7.22;;;2.58;;
29634;SDS011;16557;54.762;56.068;2023-05-17T12:59:25;3.77;;;2.85;;
29634;SDS011;16557;54.762;56.068;2023-05-17T13:01:55;5.03;;;2.50;;
29634;SDS011;16557;54.762;56.068;2023-05-17T13:04:27;11.38;;;3.45;;
29634;SDS011;16557;54.762;56.068;2023-05-17T13:06:59;5.83;;;3.00;;
29634;SDS011;16557;54.762;56.068;2023-05-17T13:09:30;8.20;;;2.75;;
29634;SDS011;16557;54.762;56.068;2023-05-17T13:12:06;7.60;;;2.70;;
29634;SDS011;16557;54.762;56.068;2023-05-17T13:14:43;8.20;;;3.02;;
29634;SDS011;16557;54.762;56.068;2023-05-17T13:17:18;7.10;;;3.05;;
29634;SDS011;16557;54.762;56.068;2023-05-17T13:20:03;10.25;;;2.62;;
29634;SDS011;16557;54.762;56.068;2023-05-17T13:22:39;6.62;;;2.95;;
29634;SDS011;16557;54.762;56.068;2023-05-17T13:25:13;6.78;;;2.67;;
29634;SDS011;16557;54.762;56.068;2023-05-17T13:27:49;17.07;;;3.47;;
29634;SDS011;16557;54.762;56.068;2023-05-17T13:30:15;6.58;;;2.65;;
29634;SDS011;16557;54.762;56.068;2023-05-17T13:32:45;11.73;;;2.90;;
29634;SDS011;16557;54.762;56.068;2023-05-17T13:35:14;6.00;;;2.42;;
29634;SDS011;16557;54.762;56.068;2023-05-17T13:37:44;11.38;;;2.92;;
29634;SDS011;16557;54.762;56.068;2023-05-17T13:40:14;7.25;;;3.10;;
29634;SDS011;16557;54.762;56.068;2023-05-17T13:42:43;6.47;;;2.72;;
29634;SDS011;16557;54.762;56.068;2023-05-17T13:45:12;6.85;;;2.87;;
29634;SDS011;16557;54.762;56.068;2023-05-17T13:47:42;9.75;;;2.70;;
29634;SDS011;16557;54.762;56.068;2023-05-17T13:50:11;6.40;;;3.37;;
29634;SDS011;16557;54.762;56.068;2023-05-17T13:52:42;7.75;;;2.55;;
29634;SDS011;16557;54.762;56.068;2023-05-17T13:55:11;10.32;;;2.83;;
29634;SDS011;16557;54.762;56.068;2023-05-17T13:57:40;8.03;;;2.70;;
29634;SDS011;16557;54.762;56.068;2023-05-17T14:00:12;8.08;;;2.37;;
29634;SDS011;16557;54.762;56.068;2023-05-17T14:02:42;6.05;;;2.67;;
29634;SDS011;16557;54.762;56.068;2023-05-17T14:05:11;9.25;;;2.67;;
29634;SDS011;16557;54.762;56.068;2023-05-17T14:07:41;4.35;;;2.52;;
29634;SDS011;16557;54.762;56.068;2023-05-17T14:10:12;16.73;;;3.15;;
29634;SDS011;16557;54.762;56.068;2023-05-17T14:12:42;15.08;;;3.85;;
29634;SDS011;16557;54.762;56.068;2023-05-17T14:15:11;10.35;;;2.80;;
29634;SDS011;16557;54.762;56.068;2023-05-17T14:17:40;6.25;;;2.92;;
29634;SDS011;16557;54.762;56.068;2023-05-17T14:20:10;6.85;;;2.83;;
29634;SDS011;16557;54.762;56.068;2023-05-17T14:22:41;8.75;;;3.05;;
29634;SDS011;16557;54.762;56.068;2023-05-17T14:25:10;11.12;;;3.22;;
29634;SDS011;16557;54.762;56.068;2023-05-17T14:27:39;17.15;;;3.42;;
29634;SDS011;16557;54.762;56.068;2023-05-17T14:30:09;11.22;;;3.00;;
29634;SDS011;16557;54.762;56.068;2023-05-17T14:32:39;7.40;;;3.00;;
29634;SDS011;16557;54.762;56.068;2023-05-17T14:35:13;4.78;;;2.37;;
29634;SDS011;16557;54.762;56.068;2023-05-17T14:37:45;10.08;;;3.15;;
29634;SDS011;16557;54.762;56.068;2023-05-17T14:40:15;11.20;;;2.90;;
29634;SDS011;16557;54.762;56.068;2023-05-17T14:42:48;10.10;;;2.62;;
29634;SDS011;16557;54.762;56.068;2023-05-17T14:45:17;14.90;;;3.25;;
29634;SDS011;16557;54.762;56.068;2023-05-17T14:47:47;8.63;;;3.27;;
29634;SDS011;16557;54.762;56.068;2023-05-17T14:50:16;5.15;;;3.05;;
29634;SDS011;16557;54.762;56.068;2023-05-17T14:52:45;7.15;;;2.85;;
29634;SDS011;16557;54.762;56.068;2023-05-17T14:55:15;8.95;;;3.02;;